To NAV CANADA Home Page Login to a new session Search on AWWS site Feedback and Comments Disclaimer Vers la page française équivalente Tips FAQ What's new on the site To the Forecasts and Observations / NOTAM section To "File a Flight Plan" website Publications and other links Update of the User's profile FIC Telephone Numbers My Weather Data Folder Route Weather Data Regional Weather Data Local Weather Data To the Forecasts and Observations / NOTAM section
Request Generated 02/11/2016 at 04:21:02 UTC . Weather information available at that time is displayed.

METAR/TAF

HIGH LEVEL/AB    (show WxCam)

METAR CYOJ 110400Z 12006KT 090V170 2 1/2SM -SN OVC027 M14/M16 A3028
RMK SC8 SLP290=
SPECI CYOJ 110315Z 12009KT 080V150 1 1/2SM -SN OVC025 M14/M16 A3028
RMK SC8 SLP291=
METAR CYOJ 110300Z 12007KT 090V150 3SM -SN OVC033 M14/M16 A3029 RMK
SC8 /S01/ SLP294=
METAR CYOJ 110200Z 11006KT 2 1/2SM -SN OVC029 M14/M16 A3030 RMK SC8
SLP296=

TAF CYOJ 110038Z 1101/1113 13006KT 2SM -SN BR OVC012 TEMPO 1101/1104
5SM -SN OVC030
FM110400 11010KT 1SM -SN OVC008 TEMPO 1104/1113 3SM -SN BR OVC012
RMK NXT FCST BY 110700Z=
Your time UTC time
Weather data provided by Environment Canada and NAV CANADA